Time;durP1;ratioP1;P1;durP2;ratioP2;P2;SDS_P1;SDS_P2;PMS_P1;PMS_P2;Temp;Humidity;BMP_temperature;BMP_pressure;BME280_temperature;BME280_humidity;BME280_pressure;Samples;Min_cycle;Max_cycle;Signal;HPM_P1;HPM_P2
2022/05/19 00:01:06;;;;;;;14.23;12.82;;;;;;;16.60;100.00;101613.91;5094883;28;20482;-47
2022/05/19 00:03:34;;;;;;;17.10;13.15;;;;;;;16.60;100.00;101611.22;5094740;28;20043;-45
2022/05/19 00:06:00;;;;;;;14.23;12.77;;;;;;;16.54;100.00;101598.22;5113178;28;20039;-51
2022/05/19 00:08:27;;;;;;;18.40;13.77;;;;;;;16.32;100.00;101560.19;5113050;28;20051;-48
2022/05/19 00:10:55;;;;;;;14.63;12.63;;;;;;;16.61;100.00;101610.28;5112917;28;20481;-48
2022/05/19 00:13:21;;;;;;;13.77;12.38;;;;;;;16.64;100.00;101601.31;5095225;28;20059;-50
2022/05/19 00:15:46;;;;;;;15.55;13.35;;;;;;;16.68;100.00;101617.06;5112633;28;20024;-52
2022/05/19 00:18:12;;;;;;;16.52;13.65;;;;;;;16.66;100.00;101604.78;5094041;28;20050;-50
2022/05/19 00:20:37;;;;;;;14.93;12.82;;;;;;;16.39;100.00;101551.03;5094546;28;20118;-48
2022/05/19 00:23:02;;;;;;;17.25;13.88;;;;;;;16.68;100.00;101611.75;5112902;28;20387;-50
2022/05/19 00:25:28;;;;;;;17.88;13.63;;;;;;;16.39;100.00;101550.16;5112910;28;20089;-48
2022/05/19 00:27:53;;;;;;;17.45;13.75;;;;;;;16.71;100.00;101581.50;5112686;28;20462;-49
2022/05/19 00:30:18;;;;;;;16.55;13.45;;;;;;;16.47;100.00;101545.34;5112752;28;20031;-50
2022/05/19 00:32:44;;;;;;;14.27;12.80;;;;;;;16.77;100.00;101589.19;5112604;28;20148;-47
2022/05/19 00:35:09;;;;;;;17.60;14.15;;;;;;;16.58;100.00;101549.28;5112386;28;20039;-52
2022/05/19 00:37:34;;;;;;;15.68;13.43;;;;;;;16.54;100.00;101539.75;5094472;28;20031;-47
2022/05/19 00:40:00;;;;;;;18.10;14.25;;;;;;;16.71;100.00;101558.44;5112437;28;20071;-49
2022/05/19 00:42:43;;;;;;;17.80;14.80;;;;;;;16.78;100.00;101569.66;5094496;28;20470;-47
2022/05/19 00:45:13;;;;;;;19.63;14.80;;;;;;;16.73;100.00;101558.34;5112568;28;20035;-48
2022/05/19 00:47:46;;;;;;;18.00;16.10;;;;;;;16.79;100.00;101569.56;5094161;28;20024;-47
2022/05/19 00:50:36;;;;;;;20.70;15.40;;;;;;;16.81;100.00;101564.19;5112595;28;20020;-47
2022/05/19 00:53:08;;;;;;;16.67;14.60;;;;;;;16.85;100.00;101569.28;5112545;28;20123;-46
2022/05/19 00:55:38;;;;;;;18.27;15.27;;;;;;;16.87;100.00;101547.94;5094297;28;20141;-46
2022/05/19 00:58:34;;;;;;;18.23;16.30;;;;;;;16.90;100.00;101561.06;5112208;28;20042;-50
2022/05/19 01:01:00;;;;;;;18.77;15.40;;;;;;;16.91;100.00;101543.34;5113980;28;20019;-47
2022/05/19 01:03:27;;;;;;;18.92;14.73;;;;;;;16.61;100.00;101492.47;5098165;28;20076;-51
2022/05/19 01:05:57;;;;;;;20.42;16.63;;;;;;;16.63;100.00;101495.94;5116724;28;20044;-50
2022/05/19 01:08:34;;;;;;;18.17;16.37;;;;;;;16.40;100.00;101456.25;5098121;28;20109;-50
2022/05/19 01:11:01;;;;;;;17.35;15.55;;;;;;;16.86;100.00;101532.94;5116379;28;20028;-49
2022/05/19 01:13:31;;;;;;;18.38;15.18;;;;;;;16.91;100.00;101538.00;5116254;28;20136;-48
2022/05/19 01:15:57;;;;;;;18.48;15.30;;;;;;;16.58;100.00;101480.19;5098496;28;20024;-49
2022/05/19 01:18:26;;;;;;;18.42;15.90;;;;;;;16.86;100.00;101512.53;5116220;28;20048;-51
2022/05/19 01:20:51;;;;;;;18.08;15.70;;;;;;;16.83;100.00;101509.13;5115839;28;20164;-47
2022/05/19 01:23:37;;;;;;;19.50;16.20;;;;;;;16.50;100.00;101446.91;5097644;28;20143;-48
2022/05/19 01:26:31;;;;;;;23.88;16.35;;;;;;;16.80;100.00;101507.50;5097775;28;20043;-48
2022/05/19 01:28:58;;;;;;;19.70;16.90;;;;;;;16.56;100.00;101459.94;5110412;28;20071;-48
2022/05/19 01:31:47;;;;;;;19.60;16.35;;;;;;;16.74;100.00;101504.25;5097440;28;20118;-48
2022/05/19 01:34:14;;;;;;;20.00;17.48;;;;;;;16.76;100.00;101513.00;5115621;28;20474;-47
2022/05/19 01:36:39;;;;;;;20.30;18.15;;;;;;;16.78;100.00;101517.31;5097452;28;20119;-50
2022/05/19 01:39:12;;;;;;;21.25;17.20;;;;;;;16.83;100.00;101509.13;5080399;28;20526;-45
2022/05/19 01:41:58;;;;;;;20.27;18.15;;;;;;;16.89;100.00;101500.88;5115553;28;20462;-52
2022/05/19 01:44:42;;;;;;;19.40;16.50;;;;;;;16.95;100.00;101492.59;5115699;28;20039;-51
2022/05/19 01:47:10;;;;;;;20.65;17.00;;;;;;;16.98;100.00;101489.78;5115949;28;20031;-51
2022/05/19 01:50:20;;;;;;;21.85;17.38;;;;;;;17.01;100.00;101497.63;5115530;28;20020;-48
2022/05/19 01:52:51;;;;;;;19.77;17.23;;;;;;;17.06;100.00;101498.25;5075883;28;20041;-47
2022/05/19 01:55:27;;;;;;;20.45;18.42;;;;;;;17.09;100.00;101490.13;5096980;28;20394;-48
2022/05/19 01:57:58;;;;;;;25.65;17.35;;;;;;;17.13;100.00;101483.69;5096993;28;20062;-47
2022/05/19 02:00:25;;;;;;;20.88;18.08;;;;;;;16.96;100.00;101440.28;5097288;28;20448;-48
2022/05/19 02:03:03;;;;;;;24.70;19.30;;;;;;;17.24;100.00;101483.19;5096847;28;20024;-48
2022/05/19 02:05:31;;;;;;;24.65;18.48;;;;;;;17.29;100.00;101468.72;5115250;28;20020;-52
2022/05/19 02:07:59;;;;;;;25.52;18.75;;;;;;;17.34;100.00;101479.13;5115122;28;20038;-52
2022/05/19 02:10:29;;;;;;;21.13;18.85;;;;;;;17.26;100.00;101479.50;5096831;28;20084;-52
2022/05/19 02:12:55;;;;;;;21.67;18.02;;;;;;;17.41;100.00;101518.66;5096641;28;20031;-48
2022/05/19 02:15:23;;;;;;;23.58;19.85;;;;;;;17.49;100.00;101550.22;5096741;28;20114;-47
2022/05/19 02:17:49;;;;;;;22.83;20.33;;;;;;;17.25;100.00;101519.50;5115095;28;20031;-52
2022/05/19 02:20:20;;;;;;;30.85;23.63;;;;;;;17.56;100.00;101557.00;5114896;28;20039;-44
2022/05/19 02:22:45;;;;;;;30.52;23.88;;;;;;;17.54;100.00;101537.56;5096722;28;20303;-52
2022/05/19 02:25:19;;;;;;;32.15;26.88;;;;;;;17.48;100.00;101527.22;5114846;28;20035;-54
2022/05/19 02:28:11;;;;;;;30.50;26.58;;;;;;;17.31;100.00;101528.03;5114624;28;20039;-46
2022/05/19 02:30:39;;;;;;;36.75;29.00;;;;;;;17.02;100.00;101482.50;5096758;28;20024;-48
2022/05/19 02:33:05;;;;;;;35.42;29.15;;;;;;;16.96;100.00;101481.00;5114704;28;20031;-47
2022/05/19 02:35:30;;;;;;;38.85;32.00;;;;;;;17.16;100.00;101539.41;5114698;28;20046;-52
2022/05/19 02:37:57;;;;;;;40.90;33.05;;;;;;;17.15;100.00;101536.84;5114506;28;20028;-46
2022/05/19 02:40:26;;;;;;;42.28;35.70;;;;;;;17.12;100.00;101551.16;5114622;28;20046;-54
2022/05/19 02:42:52;;;;;;;50.03;39.85;;;;;;;17.12;100.00;101576.91;5114489;28;20084;-47
2022/05/19 02:45:19;;;;;;;52.65;41.17;;;;;;;16.77;100.00;101491.69;5114479;28;20032;-50
2022/05/19 02:47:45;;;;;;;54.92;42.17;;;;;;;16.82;100.00;101478.16;5114405;28;20027;-50
2022/05/19 02:50:11;;;;;;;49.85;40.78;;;;;;;17.12;100.00;101543.19;5096198;28;20028;-51
2022/05/19 02:52:37;;;;;;;55.72;44.22;;;;;;;17.00;100.00;101514.50;5096066;28;20080;-48
2022/05/19 02:55:03;;;;;;;51.45;41.47;;;;;;;17.19;100.00;101530.47;5114408;28;20039;-51
2022/05/19 02:57:29;;;;;;;48.15;38.90;;;;;;;16.88;100.00;101475.22;5078953;28;20028;-46
2022/05/19 02:59:54;;;;;;;48.40;40.08;;;;;;;17.00;100.00;101487.91;5095636;28;20044;-48
2022/05/19 03:02:20;;;;;;;51.33;40.22;;;;;;;17.32;100.00;101545.72;5095667;28;20031;-50
2022/05/19 03:04:45;;;;;;;39.33;33.03;;;;;;;17.35;100.00;101542.94;5113850;28;20042;-50
2022/05/19 03:07:10;;;;;;;39.03;31.48;;;;;;;17.32;100.00;101529.75;5113759;28;20069;-53
2022/05/19 03:09:36;;;;;;;32.13;26.38;;;;;;;17.10;100.00;101494.53;5114153;28;20036;-51
2022/05/19 03:12:01;;;;;;;30.92;27.65;;;;;;;17.44;100.00;101545.13;5113947;28;20032;-50
2022/05/19 03:14:27;;;;;;;34.90;26.73;;;;;;;17.43;100.00;101508.81;5113823;28;20042;-51
2022/05/19 03:16:52;;;;;;;30.05;24.58;;;;;;;17.39;100.00;101482.44;5113887;28;20044;-49
2022/05/19 03:19:18;;;;;;;26.25;22.23;;;;;;;17.44;100.00;101521.19;5113485;28;20059;-50
2022/05/19 03:21:43;;;;;;;27.23;22.30;;;;;;;17.41;100.00;101533.78;5113674;28;20061;-53
2022/05/19 03:24:09;;;;;;;26.05;20.33;;;;;;;17.06;100.00;101476.13;5078045;28;20027;-51
2022/05/19 03:26:35;;;;;;;24.95;20.50;;;;;;;17.11;100.00;101487.38;5113491;28;20031;-49
2022/05/19 03:29:00;;;;;;;21.95;18.13;;;;;;;17.26;100.00;101505.25;5113541;28;20024;-52
2022/05/19 03:31:26;;;;;;;19.08;17.10;;;;;;;16.96;100.00;101467.72;5095295;28;20063;-53
2022/05/19 03:33:52;;;;;;;19.70;14.15;;;;;;;17.25;100.00;101512.38;5113441;28;20035;-55
2022/05/19 03:36:17;;;;;;;14.20;12.32;;;;;;;17.15;100.00;101529.72;5095005;28;20078;-50
2022/05/19 03:38:42;;;;;;;17.15;12.60;;;;;;;17.29;100.00;101716.19;5113110;28;20043;-51
2022/05/19 03:41:08;;;;;;;21.17;18.83;;;;;;;17.19;100.00;101696.25;5113488;28;20028;-52
2022/05/19 03:43:33;;;;;;;32.17;25.65;;;;;;;17.34;100.00;101714.16;5113259;28;20043;-48
2022/05/19 03:46:01;;;;;;;39.53;32.22;;;;;;;17.37;100.00;101710.50;5113119;28;20486;-48
2022/05/19 03:48:31;;;;;;;36.35;32.42;;;;;;;17.29;100.00;101673.59;5113187;28;20032;-51
2022/05/19 03:50:56;;;;;;;40.55;31.45;;;;;;;17.41;100.00;101704.97;5113015;28;20044;-46
2022/05/19 03:53:22;;;;;;;33.97;29.00;;;;;;;17.40;100.00;101692.59;5112957;28;20247;-49
2022/05/19 03:55:47;;;;;;;32.30;27.30;;;;;;;17.39;100.00;101674.91;5113042;28;20031;-52
2022/05/19 03:58:12;;;;;;;29.90;26.80;;;;;;;17.30;100.00;101675.34;5113230;28;20040;-51
2022/05/19 04:00:38;;;;;;;34.88;29.95;;;;;;;17.35;100.00;101683.97;5113010;28;20027;-48
2022/05/19 04:03:03;;;;;;;30.80;27.60;;;;;;;17.05;100.00;101613.56;5112917;28;20097;-46
2022/05/19 04:05:29;;;;;;;31.30;28.08;;;;;;;17.31;100.00;101638.94;5112654;28;20093;-51
2022/05/19 04:07:54;;;;;;;33.30;29.90;;;;;;;17.32;100.00;101638.88;5095072;28;20058;-51
2022/05/19 04:10:20;;;;;;;35.15;31.38;;;;;;;17.24;100.00;101619.75;5113152;28;20531;-49
2022/05/19 04:12:45;;;;;;;37.58;33.42;;;;;;;17.32;100.00;101638.88;5112967;28;20050;-47
2022/05/19 04:15:12;;;;;;;36.15;32.28;;;;;;;17.32;100.00;101628.22;5113087;28;20382;-47
2022/05/19 04:17:37;;;;;;;36.35;32.47;;;;;;;17.33;100.00;101616.66;5094635;28;20110;-46
2022/05/19 04:20:05;;;;;;;39.42;34.42;;;;;;;17.04;100.00;101584.38;5112299;28;20154;-49
2022/05/19 04:22:30;;;;;;;39.58;35.58;;;;;;;17.02;100.00;101583.56;5112867;28;20057;-46
2022/05/19 04:24:56;;;;;;;40.08;35.97;;;;;;;17.30;100.00;101629.25;5112775;28;20065;-48
2022/05/19 04:27:22;;;;;;;40.85;36.60;;;;;;;17.27;100.00;101630.25;5112851;28;20506;-48
2022/05/19 04:29:48;;;;;;;43.08;38.58;;;;;;;17.27;100.00;101638.22;5112566;28;20544;-46
2022/05/19 04:32:15;;;;;;;45.58;38.60;;;;;;;16.96;100.00;101582.06;5094566;28;20027;-49
2022/05/19 04:34:41;;;;;;;43.03;37.17;;;;;;;17.25;100.00;101626.78;5113472;28;20035;-48
2022/05/19 04:37:06;;;;;;;43.08;38.65;;;;;;;17.22;100.00;101626.91;5116807;28;20195;-46
2022/05/19 04:39:31;;;;;;;43.78;39.00;;;;;;;16.91;100.00;101569.94;5116798;28;20031;-44
2022/05/19 04:41:57;;;;;;;43.63;39.05;;;;;;;17.22;100.00;101618.09;5116758;28;20049;-49
2022/05/19 04:44:22;;;;;;;45.72;40.10;;;;;;;17.22;100.00;101615.44;5116706;28;20114;-47
2022/05/19 04:46:47;;;;;;;45.58;40.85;;;;;;;16.81;100.00;101542.94;5116726;28;20103;-50
2022/05/19 04:49:13;;;;;;;50.08;44.00;;;;;;;16.94;100.00;101560.00;5098399;28;20040;-49
2022/05/19 04:51:38;;;;;;;47.65;41.83;;;;;;;17.20;100.00;101615.50;5116657;28;20455;-44
2022/05/19 04:54:03;;;;;;;49.60;44.40;;;;;;;17.15;100.00;101592.72;5116734;28;20059;-50
2022/05/19 04:56:30;;;;;;;50.38;45.17;;;;;;;17.22;100.00;101616.28;5116632;28;20114;-49
2022/05/19 04:58:56;;;;;;;52.42;45.50;;;;;;;17.16;100.00;101603.25;5116469;28;20046;-47
2022/05/19 05:01:21;;;;;;;52.33;46.58;;;;;;;17.25;100.00;101612.63;5098231;28;20436;-47
2022/05/19 05:03:47;;;;;;;51.65;46.00;;;;;;;17.25;100.00;101609.97;5116317;28;20047;-49
2022/05/19 05:06:12;;;;;;;53.90;47.25;;;;;;;17.27;100.00;101606.31;5116367;28;20081;-48
2022/05/19 05:08:37;;;;;;;53.03;47.28;;;;;;;16.46;100.00;101466.59;5116358;28;20570;-47
2022/05/19 05:11:02;;;;;;;56.17;49.30;;;;;;;17.31;100.00;101591.03;5116146;28;20036;-49
2022/05/19 05:13:28;;;;;;;56.30;48.78;;;;;;;16.53;100.00;101460.91;5116301;28;20032;-48
2022/05/19 05:15:53;;;;;;;56.97;49.17;;;;;;;17.34;100.00;101558.94;5116158;28;20036;-46
2022/05/19 05:18:18;;;;;;;59.97;52.78;;;;;;;17.35;100.00;101552.69;5097547;28;20047;-48
2022/05/19 05:20:44;;;;;;;63.53;51.70;;;;;;;17.43;100.00;101553.19;5097945;28;20042;-49
2022/05/19 05:23:10;;;;;;;61.92;53.35;;;;;;;17.47;100.00;101554.75;5097942;28;20040;-47
2022/05/19 05:25:35;;;;;;;59.58;53.22;;;;;;;17.21;100.00;101478.88;5097748;28;20027;-45
2022/05/19 05:28:03;;;;;;;58.80;52.50;;;;;;;17.57;100.00;101521.44;5115903;28;20042;-46
2022/05/19 05:30:29;;;;;;;65.00;51.50;;;;;;;17.53;100.00;101495.91;5116058;28;20055;-48
2022/05/19 05:32:54;;;;;;;60.50;50.25;;;;;;;17.60;100.00;101497.31;5097319;28;20031;-47
2022/05/19 05:35:19;;;;;;;57.13;50.80;;;;;;;17.50;100.00;101464.13;5115382;28;20466;-46
2022/05/19 05:37:45;;;;;;;59.28;51.10;;;;;;;17.64;100.00;101482.94;5115703;28;20474;-48
2022/05/19 05:40:11;;;;;;;56.97;50.30;;;;;;;17.84;100.00;101496.06;5097210;28;20073;-45
2022/05/19 05:42:38;;;;;;;54.63;48.72;;;;;;;17.89;100.00;101501.19;5115321;28;20035;-48
2022/05/19 05:45:05;;;;;;;53.95;48.15;;;;;;;17.86;100.00;101490.69;5115495;28;20042;-52
2022/05/19 05:47:30;;;;;;;50.70;45.38;;;;;;;17.80;100.00;101469.69;5096682;28;20027;-47
2022/05/19 05:49:56;;;;;;;51.28;45.78;;;;;;;17.93;100.00;101490.25;5115555;28;20042;-49
2022/05/19 05:52:21;;;;;;;48.13;42.90;;;;;;;17.82;100.00;101476.66;5115464;28;20020;-48
2022/05/19 05:54:47;;;;;;;47.95;43.03;;;;;;;17.91;100.00;101491.28;5096982;28;20035;-53
2022/05/19 05:57:14;;;;;;;48.75;43.55;;;;;;;17.90;100.00;101495.75;5115264;28;20028;-53
2022/05/19 05:59:40;;;;;;;48.45;42.67;;;;;;;17.89;100.00;101503.84;5115371;28;20046;-48
2022/05/19 06:02:06;;;;;;;48.47;42.97;;;;;;;17.90;100.00;101486.91;5114998;28;20398;-49
2022/05/19 06:04:31;;;;;;;46.63;41.80;;;;;;;17.90;100.00;101497.56;5115117;28;20028;-47
2022/05/19 06:06:56;;;;;;;45.55;40.85;;;;;;;18.01;100.00;101492.50;5079331;28;20036;-48
2022/05/19 06:09:22;;;;;;;49.47;44.35;;;;;;;18.14;100.00;101498.94;5095687;28;20486;-48
2022/05/19 06:11:47;;;;;;;48.60;43.40;;;;;;;17.97;100.00;101457.22;5115199;28;20043;-47
2022/05/19 06:14:12;;;;;;;45.83;41.10;;;;;;;18.33;100.00;101493.50;5114998;28;20038;-49
2022/05/19 06:16:38;;;;;;;41.63;37.40;;;;;;;18.05;100.00;101435.47;5079764;28;20039;-46
2022/05/19 06:19:03;;;;;;;41.05;36.55;;;;;;;18.40;100.00;101485.06;5113726;28;20395;-48
2022/05/19 06:21:29;;;;;;;39.38;35.40;;;;;;;18.44;100.00;101475.97;5114567;28;20497;-48
2022/05/19 06:23:54;;;;;;;38.90;34.40;;;;;;;18.49;100.00;101484.59;5114637;28;20043;-48
2022/05/19 06:26:20;;;;;;;34.67;31.08;;;;;;;18.43;100.00;101462.72;5114683;28;20509;-48
2022/05/19 06:28:45;;;;;;;33.75;29.85;;;;;;;18.51;100.00;101468.50;5096585;28;20114;-48
2022/05/19 06:31:11;;;;;;;34.85;30.65;;;;;;;18.53;100.00;101479.97;5114672;28;20031;-50
2022/05/19 06:33:36;;;;;;;32.33;29.02;;;;;;;18.33;100.00;101426.84;5114618;28;20039;-47
2022/05/19 06:36:04;;;;;;;32.70;29.42;;;;;;;18.67;100.00;101481.84;5096716;28;20595;-50
2022/05/19 06:38:31;;;;;;;27.83;24.88;;;;;;;18.66;100.00;101480.13;5096345;28;20027;-48
2022/05/19 06:42:00;;;;;;;31.50;27.40;;;;;;;18.41;100.00;101425.50;5114366;28;20115;-47
2022/05/19 06:43:43;;;;;;;27.90;25.17;;;;;;;18.61;100.00;101436.88;5114130;28;20050;-46
2022/05/19 06:46:08;;;;;;;25.77;23.33;;;;;;;19.05;100.00;101494.75;5114345;28;20039;-49
2022/05/19 06:48:33;;;;;;;26.15;23.58;;;;;;;19.16;100.00;101493.25;5096314;28;20031;-43
2022/05/19 06:50:58;;;;;;;26.65;24.05;;;;;;;19.29;100.00;101500.50;5114043;28;20043;-46
2022/05/19 06:53:24;;;;;;;22.25;19.95;;;;;;;19.47;100.00;101514.59;5114069;28;20034;-50
2022/05/19 06:55:49;;;;;;;22.13;19.83;;;;;;;19.35;100.00;101481.44;5114265;28;20032;-50
2022/05/19 06:58:15;;;;;;;19.10;17.33;;;;;;;19.51;100.00;101494.78;5111232;28;20036;-49
2022/05/19 07:00:40;;;;;;;17.90;16.30;;;;;;;19.36;100.00;101456.47;5095348;28;20065;-49
2022/05/19 07:03:06;;;;;;;19.25;17.40;;;;;;;19.90;100.00;101519.13;5114097;28;20027;-46
2022/05/19 07:05:36;;;;;;;18.17;16.52;;;;;;;20.10;100.00;101518.78;5113717;28;20027;-50
2022/05/19 07:08:02;;;;;;;18.38;15.60;;;;;;;20.16;100.00;101502.34;5096013;28;20456;-49
2022/05/19 07:10:28;;;;;;;15.13;13.63;;;;;;;20.40;100.00;101502.66;5095446;28;20493;-44
2022/05/19 07:12:54;;;;;;;15.52;13.88;;;;;;;20.43;100.00;101501.63;5113670;28;20059;-51
2022/05/19 07:15:20;;;;;;;14.77;13.23;;;;;;;20.31;100.00;101451.59;5112269;28;20474;-48
2022/05/19 07:17:46;;;;;;;14.38;13.18;;;;;;;20.58;100.00;101497.97;5113239;28;20085;-49
2022/05/19 07:22:56;;;;;;;14.98;13.10;;;;;;;20.49;100.00;101455.78;5097737;28;20055;-48
2022/05/19 07:25:21;;;;;;;17.65;13.68;;;;;;;20.86;100.00;101487.22;5094094;28;20036;-47
2022/05/19 07:27:47;;;;;;;13.30;11.65;;;;;;;20.89;100.00;101497.75;5076719;28;20035;-46
2022/05/19 07:30:12;;;;;;;14.13;12.70;;;;;;;20.96;100.00;101509.75;5112365;28;20027;-48
2022/05/19 07:32:39;;;;;;;11.68;10.57;;;;;;;21.04;100.00;101510.13;5094125;28;20046;-47
2022/05/19 07:35:07;;;;;;;10.70;9.65;;;;;;;20.77;100.00;101483.34;5094546;28;20176;-50
2022/05/19 07:37:32;;;;;;;11.07;9.43;;;;;;;20.71;100.00;101489.06;5094465;28;20035;-51
2022/05/19 07:39:58;;;;;;;10.38;9.35;;;;;;;20.92;100.00;101560.91;5112013;28;20043;-46
2022/05/19 07:42:24;;;;;;;10.85;9.93;;;;;;;20.85;100.00;101549.72;5112509;28;20023;-47
2022/05/19 07:44:51;;;;;;;11.93;8.93;;;;;;;20.67;100.00;101549.06;5112403;28;20603;-45
2022/05/19 07:47:16;;;;;;;10.05;8.82;;;;;;;20.63;100.00;101557.41;5112253;28;20035;-49
2022/05/19 07:49:42;;;;;;;10.55;8.93;;;;;;;20.53;100.00;101562.47;5112354;28;20036;-48
2022/05/19 07:52:07;;;;;;;12.40;9.00;;;;;;;20.51;100.00;101560.84;5111866;28;20474;-45
2022/05/19 07:54:33;;;;;;;9.98;9.05;;;;;;;20.37;100.00;101531.44;5093901;28;20036;-48
2022/05/19 07:56:58;;;;;;;11.55;9.60;;;;;;;20.46;100.00;101542.38;5093637;28;20028;-46
2022/05/19 07:59:24;;;;;;;9.85;8.05;;;;;;;20.49;100.00;101528.81;5112264;28;20448;-48
2022/05/19 08:01:50;;;;;;;10.27;9.18;;;;;;;20.80;100.00;101542.94;5112226;28;20034;-51
2022/05/19 08:04:15;;;;;;;9.57;7.88;;;;;;;21.12;100.00;101528.38;5093992;28;20068;-52
2022/05/19 08:06:41;;;;;;;8.32;7.55;;;;;;;21.34;100.00;101501.06;5112019;28;20043;-49
2022/05/19 08:11:51;;;;;;;7.45;6.75;;;;;;;22.65;100.00;101548.19;5111825;28;20134;-47
2022/05/19 08:17:01;;;;;;;7.50;6.68;;;;;;;23.68;100.00;101515.50;5112109;28;20042;-46
2022/05/19 08:19:26;;;;;;;7.28;6.60;;;;;;;24.32;100.00;101571.44;5112020;28;20051;-51
2022/05/19 08:21:52;;;;;;;7.82;6.22;;;;;;;24.49;100.00;101538.66;5111737;28;20059;-47
2022/05/19 08:24:18;;;;;;;7.38;6.68;;;;;;;25.08;100.00;101606.59;5111953;28;20426;-47
2022/05/19 08:26:43;;;;;;;7.53;6.57;;;;;;;25.08;100.00;101611.13;5111908;28;20126;-46
2022/05/19 08:29:09;;;;;;;7.82;6.97;;;;;;;24.45;100.00;101576.72;5093494;28;20462;-46
2022/05/19 08:31:35;;;;;;;7.93;7.22;;;;;;;24.22;100.00;101607.25;5111867;28;20034;-46
2022/05/19 08:34:03;;;;;;;8.77;7.18;;;;;;;23.95;100.00;101521.44;5093402;28;20027;-46
2022/05/19 08:36:29;;;;;;;7.68;7.07;;;;;;;24.50;100.00;101550.28;5111425;28;20039;-48
2022/05/19 08:38:54;;;;;;;7.47;6.75;;;;;;;25.12;100.00;101548.81;5093349;28;20519;-49
2022/05/19 08:41:33;;;;;;;8.27;7.47;;;;;;;25.60;100.00;101560.06;5093640;28;20035;-51
2022/05/19 08:44:48;;;;;;;7.47;6.78;;;;;;;26.14;100.00;101575.25;5093494;28;20073;-50
2022/05/19 08:47:16;;;;;;;6.15;5.75;;;;;;;26.64;100.00;101538.47;5093995;28;20031;-50
2022/05/19 08:49:48;;;;;;;7.93;6.63;;;;;;;27.50;100.00;101589.25;5111539;28;20027;-52
2022/05/19 08:52:20;;;;;;;8.73;7.22;;;;;;;27.66;100.00;101582.31;5111379;28;20032;-52
2022/05/19 08:54:48;;;;;;;8.07;6.72;;;;;;;27.92;100.00;101578.03;5111030;28;20795;-46
2022/05/19 08:57:36;;;;;;;7.10;6.47;;;;;;;28.09;100.00;101584.59;5111385;28;20024;-52
2022/05/19 09:00:22;;;;;;;7.18;6.53;;;;;;;27.55;100.00;101560.81;5093241;28;20402;-52
2022/05/19 09:02:54;;;;;;;8.85;6.63;;;;;;;26.99;100.00;101590.25;5093038;28;20024;-49
2022/05/19 09:05:38;;;;;;;6.82;6.18;;;;;;;26.33;100.00;101604.25;5111483;28;20028;-48
2022/05/19 09:08:20;;;;;;;8.05;6.97;;;;;;;26.04;100.00;101593.19;5093954;28;20038;-50
2022/05/19 09:11:10;;;;;;;6.82;6.13;;;;;;;25.48;100.00;101557.56;5112223;28;20055;-48
2022/05/19 09:13:45;;;;;;;7.63;6.30;;;;;;;25.31;100.00;101567.00;5094151;28;20024;-48
2022/05/19 09:16:14;;;;;;;7.50;6.80;;;;;;;25.35;100.00;101562.22;5093999;28;20497;-48
2022/05/19 09:18:44;;;;;;;7.90;7.20;;;;;;;25.52;100.00;101559.00;5111115;28;20051;-48
2022/05/19 09:21:09;;;;;;;7.07;6.47;;;;;;;25.60;100.00;101564.59;5110888;28;20402;-45
2022/05/19 09:23:35;;;;;;;7.10;6.50;;;;;;;26.26;100.00;101604.78;5114605;28;20040;-46
2022/05/19 09:26:29;;;;;;;5.40;4.88;;;;;;;26.96;100.00;101612.16;5096559;28;20023;-48
2022/05/19 09:28:56;;;;;;;6.20;5.60;;;;;;;27.35;100.00;101575.25;5115049;28;20354;-52
2022/05/19 09:31:35;;;;;;;6.38;5.78;;;;;;;27.85;100.00;101622.00;5114759;28;20032;-50
2022/05/19 09:34:01;;;;;;;7.40;5.03;;;;;;;27.87;100.00;101561.34;5096544;28;20062;-51
2022/05/19 09:36:26;;;;;;;5.50;4.90;;;;;;;28.55;100.00;101616.25;5096210;28;20073;-50
2022/05/19 09:38:59;;;;;;;5.75;4.93;;;;;;;28.63;100.00;101572.19;5114346;28;20399;-50
2022/05/19 09:41:37;;;;;;;6.47;4.90;;;;;;;29.16;100.00;101572.41;5079235;28;20084;-49
2022/05/19 09:44:04;;;;;;;4.43;3.92;;;;;;;29.65;100.00;101601.78;5114491;28;20058;-48
2022/05/19 09:46:47;;;;;;;4.30;3.63;;;;;;;29.62;100.00;101628.38;5076490;28;20948;-49
2022/05/19 09:49:33;;;;;;;6.03;4.57;;;;;;;29.35;100.00;101566.88;5112544;28;20035;-49
2022/05/19 09:52:05;;;;;;;5.18;4.55;;;;;;;29.22;100.00;101607.03;5111284;28;20024;-49
2022/05/19 09:54:32;;;;;;;4.70;4.22;;;;;;;29.17;100.00;101598.50;5112330;28;20044;-50
2022/05/19 09:57:11;;;;;;;4.50;3.90;;;;;;;29.38;100.00;101607.25;5098018;28;20028;-47
2022/05/19 09:59:47;;;;;;;3.63;3.30;;;;;;;29.29;100.00;101537.66;5062811;28;20048;-49
2022/05/19 10:02:36;;;;;;;4.05;2.85;;;;;;;29.46;100.00;101566.66;5113360;28;20032;-47
2022/05/19 10:05:17;;;;;;;3.58;3.28;;;;;;;29.28;100.00;101617.28;5112868;28;20048;-46
2022/05/19 10:07:46;;;;;;;4.70;3.38;;;;;;;28.44;100.00;101613.72;5095221;28;20080;-50
2022/05/19 10:10:26;;;;;;;3.60;2.83;;;;;;;27.73;100.00;101590.72;5114151;28;20504;-44
2022/05/19 10:12:56;;;;;;;4.00;3.20;;;;;;;26.96;100.00;101552.69;5114501;28;20066;-46
2022/05/19 10:15:22;;;;;;;2.70;2.50;;;;;;;26.63;100.00;101547.56;5083313;28;20111;-48
2022/05/19 10:18:24;;;;;;;4.82;3.03;;;;;;;26.61;100.00;101588.22;5093602;28;20115;-46
2022/05/19 10:21:15;;;;;;;4.50;2.90;;;;;;;26.23;100.00;101553.78;5074101;28;20032;-45
2022/05/19 10:24:20;;;;;;;4.05;2.80;;;;;;;26.54;100.00;101608.63;5073600;28;20036;-47
2022/05/19 10:33:29;;;;;;;3.20;2.90;;;;;;;25.40;100.00;101609.34;5073790;28;20039;-51
2022/05/19 10:35:58;;;;;;;3.75;3.17;;;;;;;24.96;100.00;101604.03;5022032;28;20124;-49
2022/05/19 10:38:44;;;;;;;5.13;4.45;;;;;;;24.51;100.00;101606.69;5073573;28;20031;-48
2022/05/19 10:41:43;;;;;;;6.00;4.30;;;;;;;24.08;100.00;101619.88;5073593;28;20036;-50
2022/05/19 10:44:50;;;;;;;5.68;4.22;;;;;;;23.73;100.00;101623.53;5073473;28;20295;-47
2022/05/19 10:47:25;;;;;;;3.97;3.67;;;;;;;23.09;100.00;101569.13;5073615;28;20468;-49
2022/05/19 10:50:06;;;;;;;8.10;4.93;;;;;;;23.10;100.00;101629.09;5073591;28;20044;-48
2022/05/19 10:52:53;;;;;;;5.93;5.20;;;;;;;22.92;100.00;101645.53;5073501;28;20031;-49
2022/05/19 10:55:31;;;;;;;7.22;6.45;;;;;;;22.59;100.00;101657.78;5056357;28;20020;-48
2022/05/19 10:58:07;;;;;;;12.85;9.77;;;;;;;21.41;100.00;101548.75;5073209;28;20391;-50
2022/05/19 11:00:54;;;;;;;13.88;12.50;;;;;;;21.40;100.00;101664.00;5073396;28;20036;-53
2022/05/19 11:03:59;;;;;;;19.17;14.43;;;;;;;20.64;100.00;101671.44;5055316;28;20043;-50
2022/05/19 11:06:43;;;;;;;20.88;17.30;;;;;;;20.21;100.00;101671.34;5038399;28;20554;-49
2022/05/19 11:09:29;;;;;;;24.73;19.85;;;;;;;19.77;100.00;101649.03;5073264;28;20494;-47
2022/05/19 11:12:29;;;;;;;21.63;19.42;;;;;;;19.57;100.00;101654.66;5038394;28;20064;-52
2022/05/19 11:15:19;;;;;;;21.30;19.17;;;;;;;19.36;100.00;101656.69;5072813;28;20083;-46
2022/05/19 11:18:14;;;;;;;23.95;20.77;;;;;;;19.24;100.00;101672.50;5055146;28;20037;-49
2022/05/19 11:21:17;;;;;;;24.63;21.17;;;;;;;19.11;100.00;101685.69;5092698;28;20056;-51
2022/05/19 11:24:00;;;;;;;24.67;21.85;;;;;;;19.03;100.00;101694.09;5074908;28;20020;-53
2022/05/19 11:26:58;;;;;;;23.92;20.80;;;;;;;18.97;100.00;101667.72;5092963;28;20032;-54
2022/05/19 11:29:41;;;;;;;20.17;18.17;;;;;;;18.77;100.00;101664.41;5074657;28;20044;-49
2022/05/19 11:32:06;;;;;;;21.83;19.65;;;;;;;18.71;100.00;101659.44;5092851;28;20042;-47
2022/05/19 11:35:17;;;;;;;20.15;18.25;;;;;;;18.63;100.00;101667.81;5092986;28;20114;-49